createdAt,value
2023-04-15T00:00:13.064Z,0.00
2023-04-15T00:00:21.708Z,0.00
2023-04-15T00:01:22.655Z,0.00
2023-04-15T00:02:23.488Z,0.00
2023-04-15T00:03:24.110Z,0.00
2023-04-15T00:04:24.622Z,0.00
2023-04-15T00:05:25.235Z,0.00
2023-04-15T00:06:25.830Z,0.00
2023-04-15T00:07:26.497Z,0.00
2023-04-15T00:08:27.060Z,0.00
2023-04-15T00:09:27.622Z,0.00
2023-04-15T00:10:28.590Z,0.00
2023-04-15T00:10:37.256Z,0.00
2023-04-15T00:11:37.963Z,0.00
2023-04-15T00:12:38.493Z,0.00
2023-04-15T00:13:39.058Z,0.00
2023-04-15T00:14:39.725Z,0.00
2023-04-15T00:15:40.249Z,0.00
2023-04-15T00:16:41.873Z,0.00
2023-04-15T00:17:41.526Z,0.00
2023-04-15T00:18:42.125Z,0.00
2023-04-15T00:19:42.890Z,0.00
2023-04-15T00:20:43.550Z,0.00
2023-04-15T00:22:15.518Z,0.00
2023-04-15T00:23:47.382Z,0.00
2023-04-15T00:24:48.058Z,0.00
2023-04-15T00:26:18.736Z,0.00
2023-04-15T00:27:19.568Z,0.00
2023-04-15T00:28:52.571Z,0.00
2023-04-15T00:29:52.878Z,0.00
2023-04-15T00:30:53.551Z,0.00
2023-04-15T00:31:54.127Z,0.00
2023-04-15T00:32:54.993Z,0.00
2023-04-15T00:33:55.479Z,0.00
2023-04-15T00:34:56.082Z,0.00
2023-04-15T00:35:56.661Z,0.00
2023-04-15T00:36:57.173Z,0.00
2023-04-15T00:37:57.773Z,0.00
2023-04-15T00:38:58.529Z,0.00
2023-04-15T00:39:59.306Z,0.00
2023-04-15T00:40:07.952Z,0.00
2023-04-15T00:41:08.828Z,0.00
2023-04-15T00:42:09.429Z,0.00
2023-04-15T00:43:09.965Z,0.00
2023-04-15T00:44:10.503Z,0.00
2023-04-15T00:45:11.169Z,0.00
2023-04-15T00:46:11.762Z,0.00
2023-04-15T00:47:12.293Z,0.00
2023-04-15T00:48:12.794Z,0.00
2023-04-15T00:49:13.449Z,0.00
2023-04-15T00:50:14.138Z,0.00
2023-04-15T00:50:22.850Z,0.00
2023-04-15T00:51:23.349Z,0.00
2023-04-15T00:52:24.096Z,0.00
2023-04-15T00:53:25.775Z,0.00
2023-04-15T00:54:25.246Z,0.00
2023-04-15T00:55:25.821Z,0.00
2023-04-15T00:56:26.350Z,0.00
2023-04-15T00:57:27.008Z,0.00
2023-04-15T00:58:27.488Z,0.00
2023-04-15T00:59:27.797Z,0.00
2023-04-15T01:00:28.388Z,0.00
2023-04-15T01:01:28.958Z,0.00
2023-04-15T01:01:38.726Z,0.00
2023-04-15T01:02:39.640Z,0.00
2023-04-15T01:03:40.273Z,0.00
2023-04-15T01:04:40.590Z,0.00
2023-04-15T01:05:41.408Z,0.00
2023-04-15T01:06:42.055Z,0.00
2023-04-15T01:07:42.618Z,0.00
2023-04-15T01:08:43.534Z,0.00
2023-04-15T01:09:44.072Z,0.00
2023-04-15T01:10:44.822Z,0.00
2023-04-15T01:11:45.423Z,0.00
2023-04-15T01:11:54.113Z,0.00
2023-04-15T01:12:54.652Z,0.00
2023-04-15T01:13:55.192Z,0.00
2023-04-15T01:14:55.761Z,0.00
2023-04-15T01:15:56.482Z,0.00
2023-04-15T01:16:57.318Z,0.00
2023-04-15T01:17:57.959Z,0.00
2023-04-15T01:18:58.806Z,0.00
2023-04-15T01:19:59.159Z,0.00
2023-04-15T01:20:59.819Z,0.00
2023-04-15T01:22:00.458Z,0.00
2023-04-15T01:23:00.994Z,0.00
2023-04-15T01:23:10.123Z,0.00
2023-04-15T01:24:10.582Z,0.00
2023-04-15T01:25:10.929Z,0.00
2023-04-15T01:26:11.555Z,0.00
2023-04-15T01:27:12.132Z,0.00
2023-04-15T01:28:12.680Z,0.00
2023-04-15T01:29:13.310Z,0.00
2023-04-15T01:30:13.943Z,0.00
2023-04-15T01:31:14.576Z,0.00
2023-04-15T01:32:15.065Z,0.00
2023-04-15T01:33:15.616Z,0.00
2023-04-15T01:33:24.806Z,0.00
2023-04-15T01:34:24.657Z,0.00
2023-04-15T01:35:25.320Z,0.00
2023-04-15T01:36:25.804Z,0.00
2023-04-15T01:37:26.407Z,0.00
2023-04-15T01:38:26.945Z,0.00
2023-04-15T01:39:27.458Z,0.00
2023-04-15T01:40:28.268Z,0.00
2023-04-15T01:41:28.805Z,0.00
2023-04-15T01:42:29.444Z,0.00
2023-04-15T01:43:29.933Z,0.00
2023-04-15T01:44:30.487Z,0.00
2023-04-15T01:44:39.629Z,0.00
2023-04-15T01:45:40.192Z,0.00
2023-04-15T01:46:40.858Z,0.00
2023-04-15T01:47:41.408Z,0.00
2023-04-15T01:48:42.151Z,0.00
2023-04-15T01:49:42.864Z,0.00
2023-04-15T01:50:43.598Z,0.00
2023-04-15T01:51:44.252Z,0.00
2023-04-15T01:52:44.977Z,0.00
2023-04-15T01:53:45.520Z,0.00
2023-04-15T01:54:46.018Z,0.00
2023-04-15T01:54:55.706Z,0.00
2023-04-15T01:55:56.597Z,0.00
2023-04-15T01:56:57.253Z,0.00
2023-04-15T01:57:57.901Z,0.00
2023-04-15T01:58:58.855Z,0.00
2023-04-15T01:59:59.080Z,0.00
2023-04-15T02:00:59.723Z,0.00
2023-04-15T02:02:00.364Z,0.00
2023-04-15T02:03:01.020Z,0.00
2023-04-15T02:04:01.615Z,0.00
2023-04-15T02:05:02.093Z,0.00
2023-04-15T02:05:11.728Z,0.00
2023-04-15T02:06:12.300Z,0.00
2023-04-15T02:07:13.298Z,0.00
2023-04-15T02:08:13.625Z,0.00
2023-04-15T02:09:14.243Z,0.00
2023-04-15T02:10:14.901Z,0.00
2023-04-15T02:11:15.503Z,0.00
2023-04-15T02:12:16.093Z,0.00
2023-04-15T02:13:16.752Z,0.00
2023-04-15T02:14:17.280Z,0.00
2023-04-15T02:15:18.203Z,0.00
2023-04-15T02:15:26.901Z,0.00
2023-04-15T02:16:27.486Z,0.00
2023-04-15T02:17:28.238Z,0.00
2023-04-15T02:18:28.768Z,0.00
2023-04-15T02:19:29.303Z,0.00
2023-04-15T02:20:29.845Z,0.00
2023-04-15T02:21:30.440Z,0.00
2023-04-15T02:22:31.043Z,0.00
2023-04-15T02:23:31.610Z,0.00
2023-04-15T02:24:32.140Z,0.00
2023-04-15T02:25:32.619Z,0.00
2023-04-15T02:25:41.296Z,0.00
2023-04-15T02:26:41.796Z,0.00
2023-04-15T02:27:42.385Z,0.00
2023-04-15T02:28:42.957Z,0.00
2023-04-15T02:29:43.543Z,0.00
2023-04-15T02:30:44.075Z,0.00
2023-04-15T02:31:44.738Z,0.00
2023-04-15T02:32:45.728Z,0.00
2023-04-15T02:33:46.154Z,0.00
2023-04-15T02:34:46.894Z,0.00
2023-04-15T02:35:47.508Z,0.00
2023-04-15T02:36:48.081Z,0.00
2023-04-15T02:36:56.769Z,0.00
2023-04-15T02:37:57.307Z,0.00
2023-04-15T02:38:57.886Z,0.00
2023-04-15T02:39:58.379Z,0.00
2023-04-15T02:40:58.994Z,0.00
2023-04-15T02:41:59.660Z,0.00
2023-04-15T02:43:00.252Z,0.00
2023-04-15T02:44:01.154Z,0.00
2023-04-15T02:45:01.673Z,0.00
2023-04-15T02:46:02.238Z,0.00
2023-04-15T02:47:02.932Z,0.00
2023-04-15T02:47:11.632Z,0.00
2023-04-15T02:48:12.261Z,0.00
2023-04-15T02:49:12.964Z,0.00
2023-04-15T02:50:13.554Z,0.00
2023-04-15T02:51:14.168Z,0.00
2023-04-15T02:52:15.122Z,0.00
2023-04-15T02:53:15.726Z,0.00
2023-04-15T02:55:49.422Z,0.00
2023-04-15T02:56:49.442Z,0.00
2023-04-15T02:57:50.114Z,0.00
2023-04-15T02:58:50.864Z,0.00
2023-04-15T02:59:51.399Z,0.00
2023-04-15T03:00:51.978Z,0.00
2023-04-15T03:01:52.651Z,0.00
2023-04-15T03:02:53.333Z,0.00
2023-04-15T03:03:53.923Z,0.00
2023-04-15T03:04:54.501Z,0.00
2023-04-15T03:05:55.081Z,0.00
2023-04-15T03:06:03.758Z,0.00
2023-04-15T03:07:04.285Z,0.00
2023-04-15T03:08:05.098Z,0.00
2023-04-15T03:09:05.673Z,0.00
2023-04-15T03:10:06.261Z,0.00
2023-04-15T03:11:06.896Z,0.00
2023-04-15T03:12:07.463Z,0.00
2023-04-15T03:13:08.127Z,0.00
2023-04-15T03:14:08.759Z,0.00
2023-04-15T03:15:09.339Z,0.00
2023-04-15T03:16:10.068Z,0.00
2023-04-15T03:16:18.695Z,0.00
2023-04-15T03:17:19.311Z,0.00
2023-04-15T03:18:19.884Z,0.00
2023-04-15T03:19:20.591Z,0.00
2023-04-15T03:20:21.286Z,0.00
2023-04-15T03:21:21.775Z,0.00
2023-04-15T03:22:22.395Z,0.00
2023-04-15T03:23:23.016Z,0.00
2023-04-15T03:24:23.597Z,0.00
2023-04-15T03:25:24.193Z,0.00
2023-04-15T03:26:24.819Z,0.00
2023-04-15T03:27:25.377Z,0.00
2023-04-15T03:27:34.080Z,0.00
2023-04-15T03:28:34.912Z,0.00
2023-04-15T03:29:35.687Z,0.00
2023-04-15T03:30:36.341Z,0.00
2023-04-15T03:31:37.017Z,0.00
2023-04-15T03:32:37.607Z,0.00
2023-04-15T03:33:38.282Z,0.00
2023-04-15T03:34:38.853Z,0.00
2023-04-15T03:35:39.498Z,0.00
2023-04-15T03:36:40.146Z,0.00
2023-04-15T03:37:40.435Z,0.00
2023-04-15T03:38:41.095Z,0.00
2023-04-15T03:38:49.706Z,0.00
2023-04-15T03:39:51.531Z,0.00
2023-04-15T03:40:50.994Z,0.00
2023-04-15T03:41:51.556Z,0.00
2023-04-15T03:42:52.133Z,0.00
2023-04-15T03:43:52.817Z,0.00
2023-04-15T03:44:53.388Z,0.05
2023-04-15T03:45:54.381Z,0.05
2023-04-15T03:46:54.192Z,0.05
2023-04-15T03:47:54.828Z,0.05
2023-04-15T03:48:55.587Z,0.05
2023-04-15T03:49:56.194Z,0.05
2023-04-15T03:50:04.800Z,0.05
2023-04-15T03:51:05.086Z,0.05
2023-04-15T03:52:05.683Z,0.09
2023-04-15T03:53:06.244Z,0.09
2023-04-15T03:54:07.145Z,0.14
2023-04-15T03:55:07.844Z,0.18
2023-04-15T03:56:08.407Z,0.18
2023-04-15T03:57:08.992Z,0.22
2023-04-15T03:58:09.533Z,0.27
2023-04-15T03:59:10.226Z,0.31
2023-04-15T04:00:11.151Z,0.36
2023-04-15T04:00:20.846Z,0.36
2023-04-15T04:01:20.862Z,0.50
2023-04-15T04:02:21.596Z,0.54
2023-04-15T04:03:22.162Z,0.72
2023-04-15T04:04:22.839Z,0.86
2023-04-15T04:05:23.345Z,1.03
2023-04-15T04:06:24.059Z,1.17
2023-04-15T04:07:24.690Z,1.44
2023-04-15T04:08:25.284Z,1.66
2023-04-15T04:09:25.946Z,2.03
2023-04-15T04:10:26.582Z,2.38
2023-04-15T04:11:27.601Z,2.88
2023-04-15T04:11:39.190Z,3.02
2023-04-15T04:12:39.747Z,3.51
2023-04-15T04:13:40.347Z,4.23
2023-04-15T04:14:41.009Z,4.99
2023-04-15T04:15:41.510Z,5.99
2023-04-15T04:16:42.503Z,7.11
2023-04-15T04:17:43.019Z,8.41
2023-04-15T04:18:43.577Z,9.99
2023-04-15T04:19:44.254Z,11.70
2023-04-15T04:20:45.154Z,13.95
2023-04-15T04:21:45.722Z,16.47
2023-04-15T04:22:46.268Z,19.35
2023-04-15T04:22:54.907Z,19.71
2023-04-15T04:23:55.727Z,23.04
2023-04-15T04:25:21.952Z,26.82
2023-04-15T04:25:56.489Z,30.96
2023-04-15T04:26:57.090Z,35.64
2023-04-15T04:27:57.670Z,41.04
2023-04-15T04:28:58.436Z,46.80
2023-04-15T04:29:59.069Z,53.64
2023-04-15T04:30:59.746Z,60.48
2023-04-15T04:32:00.391Z,68.40
2023-04-15T04:33:00.962Z,77.04
2023-04-15T04:34:01.553Z,86.04
2023-04-15T04:34:10.184Z,87.12
2023-04-15T04:35:10.766Z,97.20
2023-04-15T04:36:11.352Z,107.28
2023-04-15T04:37:11.984Z,118.80
2023-04-15T04:38:12.548Z,130.32
2023-04-15T04:39:13.118Z,143.28
2023-04-15T04:40:13.713Z,157.68
2023-04-15T04:41:14.280Z,173.52
2023-04-15T04:42:14.940Z,191.52
2023-04-15T04:43:15.592Z,210.24
2023-04-15T04:44:16.194Z,230.40
2023-04-15T04:44:24.876Z,231.84
2023-04-15T04:45:24.872Z,253.44
2023-04-15T04:46:25.124Z,276.48
2023-04-15T04:47:25.789Z,302.40
2023-04-15T04:48:26.353Z,332.64
2023-04-15T04:49:26.956Z,364.32
2023-04-15T04:50:27.501Z,397.44
2023-04-15T04:51:28.086Z,434.88
2023-04-15T04:52:28.748Z,472.32
2023-04-15T04:53:29.297Z,509.76
2023-04-15T04:54:29.869Z,550.08
2023-04-15T04:55:29.917Z,590.40
2023-04-15T04:55:38.584Z,596.16
2023-04-15T04:56:39.316Z,636.48
2023-04-15T04:57:39.979Z,676.80
2023-04-15T04:58:40.758Z,714.24
2023-04-15T04:59:41.371Z,754.56
2023-04-15T05:00:42.032Z,794.88
2023-04-15T05:01:42.957Z,840.96
2023-04-15T05:02:43.564Z,892.80
2023-04-15T05:03:44.100Z,944.64
2023-04-15T05:04:44.686Z,990.72
2023-04-15T05:05:45.405Z,1232.64
2023-04-15T05:06:46.096Z,1301.76
2023-04-15T05:06:57.692Z,1313.28
2023-04-15T05:07:57.933Z,1388.16
2023-04-15T05:08:58.834Z,1474.56
2023-04-15T05:09:59.545Z,1566.72
2023-04-15T05:11:00.214Z,1658.88
2023-04-15T05:12:00.808Z,1751.04
2023-04-15T05:13:01.393Z,1854.72
2023-04-15T05:14:02.054Z,1958.40
2023-04-15T05:15:02.554Z,2050.56
2023-04-15T05:16:04.315Z,2154.24
2023-04-15T05:17:03.894Z,2257.92
2023-04-15T05:18:04.591Z,2338.56
2023-04-15T05:18:13.207Z,2350.08
2023-04-15T05:19:13.360Z,2430.72
2023-04-15T05:20:14.013Z,2499.84
2023-04-15T05:21:14.827Z,2580.48
2023-04-15T05:22:15.560Z,2638.08
2023-04-15T05:23:16.270Z,2718.72
2023-04-15T05:25:02.791Z,2845.44
2023-04-15T05:26:03.456Z,2926.08
2023-04-15T05:27:04.276Z,2995.20
2023-04-15T05:28:04.961Z,3064.32
2023-04-15T05:29:05.502Z,3133.44
2023-04-15T05:30:06.087Z,3179.52
2023-04-15T05:31:06.682Z,3248.64
2023-04-15T05:32:07.552Z,3294.72
2023-04-15T05:33:08.186Z,3340.80
2023-04-15T05:34:08.739Z,3386.88
2023-04-15T05:35:09.298Z,3432.96
2023-04-15T05:36:09.942Z,3456.00
2023-04-15T05:36:20.564Z,3456.00
2023-04-15T05:37:21.429Z,3479.04
2023-04-15T05:38:22.001Z,3502.08
2023-04-15T05:39:22.647Z,3525.12
2023-04-15T05:40:23.241Z,3548.16
2023-04-15T05:41:23.896Z,3571.20
2023-04-15T05:42:24.545Z,3686.40
2023-04-15T05:43:25.239Z,4377.60
2023-04-15T05:44:25.807Z,5322.24
2023-04-15T05:45:26.388Z,5944.32
2023-04-15T05:46:27.091Z,6359.04
2023-04-15T05:46:35.767Z,6405.12
2023-04-15T05:47:36.660Z,6543.36
2023-04-15T05:48:37.247Z,6635.52
2023-04-15T05:49:37.798Z,6865.92
2023-04-15T05:50:38.399Z,7188.48
2023-04-15T05:51:38.981Z,7833.60
2023-04-15T05:52:39.634Z,8386.56
2023-04-15T05:53:40.129Z,8524.80
2023-04-15T05:54:40.756Z,8847.36
2023-04-15T05:55:47.149Z,9123.84
2023-04-15T05:56:41.588Z,9123.84
2023-04-15T05:56:50.387Z,9123.84
2023-04-15T05:57:50.523Z,9169.92
2023-04-15T05:58:53.359Z,9446.40
2023-04-15T05:59:52.168Z,9262.08
2023-04-15T06:00:53.055Z,8939.52
2023-04-15T06:01:53.677Z,8801.28
2023-04-15T06:02:54.410Z,9123.84
2023-04-15T06:03:55.449Z,9077.76
2023-04-15T06:04:55.869Z,9676.80
2023-04-15T06:05:56.801Z,9722.88
2023-04-15T06:06:57.453Z,9722.88
2023-04-15T06:07:58.152Z,9400.32
2023-04-15T06:08:06.766Z,9446.40
2023-04-15T06:09:07.354Z,9768.96
2023-04-15T06:10:08.399Z,10229.76
2023-04-15T06:11:08.587Z,10321.92
2023-04-15T06:12:09.370Z,10690.56
2023-04-15T06:13:09.986Z,10967.04
2023-04-15T06:14:10.089Z,11289.60
2023-04-15T06:15:10.951Z,11427.84
2023-04-15T06:16:11.701Z,11335.68
2023-04-15T06:17:11.622Z,10598.40
2023-04-15T06:18:11.815Z,9815.04
2023-04-15T06:19:12.639Z,8340.48
2023-04-15T06:20:13.164Z,8478.72
2023-04-15T06:20:22.213Z,8663.04
2023-04-15T06:21:22.872Z,9815.04
2023-04-15T06:22:23.621Z,9630.72
2023-04-15T06:23:25.283Z,7925.76
2023-04-15T06:24:24.953Z,7326.72
2023-04-15T06:25:25.633Z,8110.08
2023-04-15T06:26:26.405Z,9077.76
2023-04-15T06:27:27.098Z,8386.56
2023-04-15T06:28:27.740Z,7971.84
2023-04-15T06:29:28.343Z,7372.80
2023-04-15T06:30:28.960Z,7557.12
2023-04-15T06:31:29.674Z,8156.16
2023-04-15T06:31:38.828Z,8248.32
2023-04-15T06:32:39.661Z,9216.00
2023-04-15T06:33:40.380Z,10782.72
2023-04-15T06:34:41.157Z,10644.48
2023-04-15T06:35:42.071Z,9768.96
2023-04-15T06:36:42.669Z,10045.44
2023-04-15T06:37:43.247Z,9999.36
2023-04-15T06:38:43.852Z,10874.88
2023-04-15T06:39:44.431Z,12349.44
2023-04-15T06:40:45.015Z,14008.32
2023-04-15T06:41:45.624Z,15575.04
2023-04-15T06:41:54.286Z,15482.88
2023-04-15T06:42:54.791Z,15482.88
2023-04-15T06:43:55.372Z,16035.84
2023-04-15T06:44:55.994Z,16128.00
2023-04-15T06:45:56.587Z,16865.28
2023-04-15T06:46:57.135Z,15759.36
2023-04-15T06:47:57.888Z,15114.24
2023-04-15T06:48:58.510Z,15298.56
2023-04-15T06:49:59.061Z,14008.32
2023-04-15T06:50:59.669Z,15667.20
2023-04-15T06:52:00.313Z,17418.24
2023-04-15T06:52:09.071Z,17694.72
2023-04-15T06:53:09.874Z,17879.04
2023-04-15T06:54:10.488Z,17049.60
2023-04-15T06:55:10.892Z,15575.04
2023-04-15T06:56:11.507Z,16680.96
2023-04-15T06:57:12.091Z,16865.28
2023-04-15T06:58:12.862Z,17141.76
2023-04-15T06:59:13.432Z,15482.88
2023-04-15T07:00:13.987Z,16220.16
2023-04-15T07:01:15.633Z,17141.76
2023-04-15T07:02:15.191Z,18800.64
2023-04-15T07:02:30.947Z,18708.48
2023-04-15T07:03:32.759Z,18984.96
2023-04-15T07:04:31.984Z,19261.44
2023-04-15T07:05:32.498Z,19998.72
2023-04-15T07:06:33.132Z,20551.68
2023-04-15T07:07:33.758Z,20920.32
2023-04-15T07:08:34.386Z,20920.32
2023-04-15T07:09:34.929Z,18339.84
2023-04-15T07:10:35.450Z,16035.84
2023-04-15T07:11:36.092Z,17971.20
2023-04-15T07:12:36.699Z,20551.68
2023-04-15T07:13:37.098Z,20736.00
2023-04-15T07:13:46.748Z,20828.16
2023-04-15T07:14:47.635Z,21012.48
2023-04-15T07:15:48.254Z,20643.84
2023-04-15T07:16:48.913Z,20275.20
2023-04-15T07:17:49.571Z,19906.56
2023-04-15T07:18:50.101Z,19537.92
2023-04-15T07:19:50.524Z,18892.80
2023-04-15T07:20:51.152Z,18984.96
2023-04-15T07:21:51.785Z,15943.68
2023-04-15T07:22:52.350Z,15298.56
2023-04-15T07:23:52.977Z,12349.44
2023-04-15T07:24:53.723Z,15206.40
2023-04-15T07:25:53.740Z,15390.72
2023-04-15T07:26:03.402Z,16312.32
2023-04-15T07:27:03.997Z,17326.08
2023-04-15T07:28:04.596Z,17694.72
2023-04-15T07:29:05.138Z,14653.44
2023-04-15T07:30:05.850Z,10920.96
2023-04-15T07:31:06.527Z,11473.92
2023-04-15T07:32:07.168Z,12533.76
2023-04-15T07:33:07.787Z,16035.84
2023-04-15T07:34:08.411Z,17602.56
2023-04-15T07:35:08.950Z,17049.60
2023-04-15T07:36:09.743Z,18616.32
2023-04-15T07:37:10.277Z,20275.20
2023-04-15T07:37:20.390Z,20551.68
2023-04-15T07:38:20.922Z,19814.40
2023-04-15T07:39:21.496Z,15390.72
2023-04-15T07:40:22.118Z,18063.36
2023-04-15T07:41:22.724Z,18339.84
2023-04-15T07:42:23.312Z,19077.12
2023-04-15T07:43:23.950Z,16865.28
2023-04-15T07:44:24.568Z,17510.40
2023-04-15T07:45:25.525Z,15390.72
2023-04-15T07:46:26.486Z,20828.16
2023-04-15T07:47:27.152Z,20643.84
2023-04-15T07:48:27.711Z,22118.40
2023-04-15T07:48:37.624Z,22394.88
2023-04-15T07:49:37.972Z,23592.96
2023-04-15T07:50:38.722Z,20183.04
2023-04-15T07:51:38.964Z,18984.96
2023-04-15T07:52:39.656Z,18247.68
2023-04-15T07:53:40.208Z,18892.80
2023-04-15T07:55:58.212Z,14561.28
2023-04-15T07:56:58.794Z,14929.92
2023-04-15T07:57:59.429Z,18155.52
2023-04-15T07:59:00.372Z,16957.44
2023-04-15T08:00:00.610Z,18708.48
2023-04-15T08:01:01.222Z,18432.00
2023-04-15T08:02:02.167Z,17786.88
2023-04-15T08:03:03.001Z,17418.24
2023-04-15T08:04:03.409Z,15667.20
2023-04-15T08:05:03.409Z,16680.96
2023-04-15T08:06:03.955Z,17694.72
2023-04-15T08:07:04.073Z,20459.52
2023-04-15T08:07:13.495Z,20828.16
2023-04-15T08:08:14.510Z,23040.00
2023-04-15T08:09:15.161Z,23592.96
2023-04-15T08:10:22.340Z,22855.68
2023-04-15T08:11:15.990Z,18616.32
2023-04-15T08:12:16.824Z,19077.12
2023-04-15T08:13:17.572Z,19445.76
2023-04-15T08:14:17.531Z,19261.44
2023-04-15T08:15:18.457Z,21288.96
2023-04-15T08:16:19.359Z,22671.36
2023-04-15T08:17:20.223Z,20828.16
2023-04-15T08:18:21.087Z,22394.88
2023-04-15T08:18:30.931Z,22671.36
2023-04-15T08:19:31.742Z,22487.04
2023-04-15T08:20:32.705Z,23408.64
2023-04-15T08:21:33.204Z,23040.00
2023-04-15T08:22:34.112Z,22210.56
2023-04-15T08:23:34.985Z,23592.96
2023-04-15T08:24:35.958Z,23224.32
2023-04-15T08:25:36.826Z,24883.20
2023-04-15T08:26:37.512Z,27463.68
2023-04-15T08:27:38.227Z,17326.08
2023-04-15T08:28:38.873Z,17971.20
2023-04-15T08:29:39.710Z,22026.24
2023-04-15T08:29:48.760Z,20643.84
2023-04-15T08:30:48.393Z,22302.72
2023-04-15T08:31:49.062Z,25067.52
2023-04-15T08:32:49.686Z,21657.60
2023-04-15T08:33:50.269Z,17326.08
2023-04-15T08:34:50.799Z,20367.36
2023-04-15T08:35:51.584Z,22302.72
2023-04-15T08:36:52.203Z,19169.28
2023-04-15T08:37:52.837Z,20551.68
2023-04-15T08:38:53.681Z,23592.96
2023-04-15T08:39:54.549Z,19630.08
2023-04-15T08:40:55.148Z,17510.40
2023-04-15T08:41:03.767Z,17326.08
2023-04-15T08:42:04.386Z,17326.08
2023-04-15T08:43:04.950Z,19630.08
2023-04-15T08:44:05.990Z,19906.56
2023-04-15T08:45:06.559Z,19445.76
2023-04-15T08:46:07.218Z,20367.36
2023-04-15T08:47:07.890Z,21381.12
2023-04-15T08:48:08.384Z,20828.16
2023-04-15T08:49:09.522Z,18984.96
2023-04-15T08:50:09.145Z,19261.44
2023-04-15T08:51:09.725Z,18432.00
2023-04-15T08:51:18.969Z,18432.00
2023-04-15T08:52:19.431Z,17786.88
2023-04-15T08:53:19.983Z,19722.24
2023-04-15T08:54:20.028Z,20643.84
2023-04-15T08:55:20.628Z,20275.20
2023-04-15T08:56:21.202Z,20275.20
2023-04-15T08:57:21.783Z,21012.48
2023-04-15T08:58:22.525Z,23500.80
2023-04-15T08:59:23.160Z,23408.64
2023-04-15T09:00:23.898Z,20551.68
2023-04-15T09:01:24.681Z,18616.32
2023-04-15T09:02:25.288Z,20275.20
2023-04-15T09:02:33.974Z,20736.00
2023-04-15T09:03:34.170Z,18984.96
2023-04-15T09:04:35.027Z,18432.00
2023-04-15T09:05:35.618Z,17879.04
2023-04-15T09:06:36.245Z,18524.16
2023-04-15T09:07:36.888Z,17049.60
2023-04-15T09:08:37.616Z,17786.88
2023-04-15T09:09:38.261Z,18524.16
2023-04-15T09:10:38.353Z,23132.16
2023-04-15T09:11:39.098Z,21657.60
2023-04-15T09:12:39.681Z,25067.52
2023-04-15T09:12:48.368Z,24883.20
2023-04-15T09:13:48.407Z,26726.40
2023-04-15T09:14:49.092Z,23316.48
2023-04-15T09:15:49.780Z,28569.60
2023-04-15T09:16:50.635Z,28753.92
2023-04-15T09:17:51.229Z,25989.12
2023-04-15T09:18:51.882Z,28569.60
2023-04-15T09:19:52.519Z,30965.76
2023-04-15T09:20:53.166Z,25067.52
2023-04-15T09:21:55.514Z,31703.04
2023-04-15T09:22:54.690Z,43130.88
2023-04-15T09:23:55.349Z,41840.64
2023-04-15T09:24:04.224Z,41840.64
2023-04-15T09:25:05.033Z,39628.80
2023-04-15T09:26:05.754Z,43315.20
2023-04-15T09:27:05.817Z,43683.84
2023-04-15T09:28:05.896Z,42946.56
2023-04-15T09:29:06.596Z,37416.96
2023-04-15T09:30:07.241Z,32808.96
2023-04-15T09:31:07.969Z,34099.20
2023-04-15T09:32:08.602Z,39444.48
2023-04-15T09:33:09.230Z,41656.32
2023-04-15T09:34:09.826Z,42946.56
2023-04-15T09:35:10.485Z,42393.60
2023-04-15T09:35:21.658Z,42393.60
2023-04-15T09:36:21.242Z,40366.08
2023-04-15T09:37:31.966Z,34099.20
2023-04-15T09:38:22.561Z,33361.92
2023-04-15T09:39:23.216Z,37232.64
2023-04-15T09:40:23.823Z,37969.92
2023-04-15T09:41:24.446Z,40366.08
2023-04-15T09:42:25.108Z,39444.48
2023-04-15T09:43:25.169Z,39997.44
2023-04-15T09:44:25.791Z,39997.44
2023-04-15T09:45:29.378Z,38338.56
2023-04-15T09:46:26.954Z,37601.28
2023-04-15T09:46:36.755Z,37048.32
2023-04-15T09:47:37.368Z,35020.80
2023-04-15T09:48:37.974Z,34099.20
2023-04-15T09:49:38.716Z,32993.28
2023-04-15T09:50:39.711Z,31150.08
2023-04-15T09:51:39.867Z,33177.60
2023-04-15T09:52:40.571Z,31703.04
2023-04-15T09:53:41.164Z,34099.20
2023-04-15T09:54:41.849Z,32440.32
2023-04-15T09:55:42.503Z,30597.12
2023-04-15T09:56:43.120Z,23408.64
2023-04-15T09:57:43.901Z,31887.36
2023-04-15T09:57:52.528Z,32256.00
2023-04-15T09:58:53.048Z,32440.32
2023-04-15T09:59:53.785Z,35389.44
2023-04-15T10:00:53.832Z,34283.52
2023-04-15T10:01:54.536Z,32993.28
2023-04-15T10:02:55.322Z,30781.44
2023-04-15T10:03:56.071Z,29859.84
2023-04-15T10:04:56.767Z,29306.88
2023-04-15T10:05:57.663Z,30412.80
2023-04-15T10:06:58.371Z,28569.60
2023-04-15T10:07:58.995Z,25251.84
2023-04-15T10:08:59.566Z,44421.12
2023-04-15T10:09:08.211Z,44605.44
2023-04-15T10:10:09.044Z,44052.48
2023-04-15T10:11:09.776Z,44789.76
2023-04-15T10:12:10.356Z,44789.76
2023-04-15T10:13:10.982Z,44974.08
2023-04-15T10:14:11.640Z,43868.16
2023-04-15T10:15:12.303Z,39628.80
2023-04-15T10:16:13.061Z,43315.20
2023-04-15T10:17:13.863Z,43868.16
2023-04-15T10:18:14.536Z,43683.84
2023-04-15T10:19:15.239Z,30228.48
2023-04-15T10:19:23.927Z,30597.12
2023-04-15T10:20:24.598Z,44421.12
2023-04-15T10:21:25.401Z,42393.60
2023-04-15T10:22:26.362Z,40181.76
2023-04-15T10:23:27.037Z,17879.04
2023-04-15T10:24:27.790Z,21288.96
2023-04-15T10:25:28.585Z,33730.56
2023-04-15T10:26:29.217Z,34099.20
2023-04-15T10:27:29.526Z,32808.96
2023-04-15T10:28:30.222Z,32071.68
2023-04-15T10:29:30.890Z,33914.88
2023-04-15T10:30:31.674Z,23592.96
2023-04-15T10:30:40.323Z,22579.20
2023-04-15T10:31:41.089Z,33914.88
2023-04-15T10:33:42.449Z,34652.16
2023-04-15T10:34:43.135Z,31150.08
2023-04-15T10:35:43.821Z,15390.72
2023-04-15T10:36:44.521Z,15022.08
2023-04-15T10:37:45.327Z,16588.80
2023-04-15T10:38:47.222Z,20367.36
2023-04-15T10:39:46.998Z,33730.56
2023-04-15T10:40:47.806Z,33361.92
2023-04-15T10:41:48.563Z,39628.80
2023-04-15T10:41:57.372Z,41287.68
2023-04-15T10:42:57.349Z,40181.76
2023-04-15T10:43:58.001Z,39260.16
2023-04-15T10:44:59.748Z,44605.44
2023-04-15T10:45:59.392Z,43315.20
2023-04-15T10:47:00.188Z,42209.28
2023-04-15T10:48:03.299Z,39628.80
2023-04-15T10:49:01.609Z,36864.00
2023-04-15T10:50:01.993Z,36679.68
2023-04-15T10:51:02.634Z,33546.24
2023-04-15T10:52:03.430Z,32256.00
2023-04-15T10:53:04.093Z,29675.52
2023-04-15T10:53:12.745Z,29306.88
2023-04-15T10:54:13.384Z,26910.72
2023-04-15T10:55:14.067Z,23408.64
2023-04-15T10:56:14.824Z,21381.12
2023-04-15T10:57:15.505Z,20551.68
2023-04-15T10:58:16.207Z,21012.48
2023-04-15T10:59:16.924Z,22579.20
2023-04-15T11:00:17.565Z,24514.56
2023-04-15T11:01:18.327Z,29859.84
2023-04-15T11:02:19.243Z,31334.40
2023-04-15T11:03:20.118Z,32440.32
2023-04-15T11:04:20.861Z,34099.20
2023-04-15T11:04:29.546Z,33361.92
2023-04-15T11:05:30.026Z,30044.16
2023-04-15T11:06:30.858Z,30597.12
2023-04-15T11:07:31.543Z,32440.32
2023-04-15T11:08:32.232Z,30412.80
2023-04-15T11:09:33.021Z,31334.40
2023-04-15T11:10:33.762Z,28569.60
2023-04-15T11:11:34.552Z,29491.20
2023-04-15T11:12:34.779Z,28016.64
2023-04-15T11:13:35.602Z,26542.08
2023-04-15T11:14:36.261Z,25251.84
2023-04-15T11:15:36.980Z,24883.20
2023-04-15T11:15:45.598Z,24698.88
2023-04-15T11:16:46.381Z,23592.96
2023-04-15T11:17:47.078Z,21934.08
2023-04-15T11:18:47.662Z,20736.00
2023-04-15T11:19:48.335Z,20459.52
2023-04-15T11:20:48.985Z,20643.84
2023-04-15T11:21:49.703Z,20367.36
2023-04-15T11:22:50.377Z,20275.20
2023-04-15T11:23:50.930Z,19814.40
2023-04-15T11:24:51.534Z,19261.44
2023-04-15T11:25:52.256Z,18708.48
2023-04-15T11:26:52.976Z,18524.16
2023-04-15T11:27:01.624Z,18616.32
2023-04-15T11:28:02.696Z,18155.52
2023-04-15T11:29:03.611Z,17879.04
2023-04-15T11:30:04.044Z,17602.56
2023-04-15T11:31:04.846Z,17510.40
2023-04-15T11:32:05.634Z,17694.72
2023-04-15T11:33:06.273Z,17879.04
2023-04-15T11:34:07.025Z,17786.88
2023-04-15T11:35:07.593Z,17510.40
2023-04-15T11:36:08.197Z,17326.08
2023-04-15T11:37:08.936Z,17879.04
2023-04-15T11:38:09.611Z,17694.72
2023-04-15T11:38:18.243Z,17694.72
2023-04-15T11:39:18.495Z,17141.76
2023-04-15T11:40:19.209Z,16588.80
2023-04-15T11:41:19.921Z,16312.32
2023-04-15T11:42:20.633Z,16404.48
2023-04-15T11:43:21.325Z,16773.12
2023-04-15T11:44:21.995Z,17049.60